Time;durP1;ratioP1;P1;durP2;ratioP2;P2;SDS_P1;SDS_P2;PMS_P1;PMS_P2;Temp;Humidity;BMP_temperature;BMP_pressure;BME280_temperature;BME280_humidity;BME280_pressure;Samples;Min_cycle;Max_cycle;Signal;HPM_P1;HPM_P2
2023/07/06 00:01:03;;;;;;;;;;;;;;;;;;5108675;28;1676;-67
2023/07/06 00:03:33;;;;;;;;;;;;;;;;;;5108794;28;1657;-68
2023/07/06 00:06:05;;;;;;;;;;;;;;;;;;5109067;28;2040;-69
2023/07/06 00:08:33;;;;;;;;;;;;;;;;;;5108578;28;1845;-68
2023/07/06 00:11:01;;;;;;;;;;;;;;;;;;5108520;28;2105;-65
2023/07/06 00:13:28;;;;;;;;;;;;;;;;;;5108649;28;1996;-69
2023/07/06 00:15:55;;;;;;;;;;;;;;;;;;5108778;28;1905;-69
2023/07/06 00:18:23;;;;;;;;;;;;;;;;;;5108956;28;2474;-69
2023/07/06 00:20:50;;;;;;;;;;;;;;;;;;5108918;28;1743;-69
2023/07/06 00:23:18;;;;;;;;;;;;;;;;;;5108504;28;1876;-68
2023/07/06 00:25:47;;;;;;;;;;;;;;;;;;5108338;28;2033;-62
2023/07/06 00:28:16;;;;;;;;;;;;;;;;;;5108871;28;2465;-66
2023/07/06 00:33:15;;;;;;;;;;;;;;;;;;5108609;28;2293;-63
2023/07/06 00:35:42;;;;;;;;;;;;;;;;;;5108632;28;1815;-68
2023/07/06 00:38:14;;;;;;;;;;;;;;;;;;5107971;28;1724;-66
2023/07/06 00:40:42;;;;;;;;;;;;;;;;;;5110762;28;1860;-66
2023/07/06 00:43:10;;;;;;;;;;;;;;;;;;5110720;28;2036;-68
2023/07/06 00:45:38;;;;;;;;;;;;;;;;;;5128661;28;1983;-67
2023/07/06 00:48:11;;;;;;;;;;;;;;;;;;5110899;28;1916;-64
2023/07/06 00:50:39;;;;;;;;;;;;;;;;;;5128382;28;1727;-64
2023/07/06 00:53:08;;;;;;;;;;;;;;;;;;5105907;28;1956;-68
2023/07/06 00:55:36;;;;;;;;;;;;;;;;;;5108381;28;2041;-69
2023/07/06 00:58:07;;;;;;;;;;;;;;;;;;5108609;28;1870;-68
2023/07/06 01:00:39;;;;;;;;;;;;;;;;;;5107899;28;2032;-68
2023/07/06 01:03:07;;;;;;;;;;;;;;;;;;5110410;28;2109;-67
2023/07/06 01:05:38;;;;;;;;;;;;;;;;;;5129198;28;1987;-66
2023/07/06 01:08:11;;;;;;;;;;;;;;;;;;5128281;28;2054;-68
2023/07/06 01:10:39;;;;;;;;;;;;;;;;;;5128718;28;2024;-63
2023/07/06 01:13:07;;;;;;;;;;;;;;;;;;5110614;28;2221;-68
2023/07/06 01:15:38;;;;;;;;;;;;;;;;;;5128149;28;2086;-69
2023/07/06 01:18:10;;;;;;;;;;;;;;;;;;5128968;28;1880;-68
2023/07/06 01:20:49;;;;;;;;;;;;;;;;;;5128834;27;1809;-69
2023/07/06 01:23:23;;;;;;;;;;;;;;;;;;5131883;27;1702;-69
2023/07/06 01:25:59;;;;;;;;;;;;;;;;;;5131961;27;2379;-69
2023/07/06 01:28:56;;;;;;;;;;;;;;;;;;5132398;27;1940;-68
2023/07/06 01:31:27;;;;;;;;;;;;;;;;;;5060193;27;1810;-66
2023/07/06 01:34:14;;;;;;;;;;;;;;;;;;5119883;27;1898;-66
2023/07/06 01:36:48;;;;;;;;;;;;;;;;;;5111443;28;1736;-65
2023/07/06 01:39:20;;;;;;;;;;;;;;;;;;5111290;28;2000;-67
2023/07/06 01:42:06;;;;;;;;;;;;;;;;;;5111233;28;1772;-69
2023/07/06 01:44:34;;;;;;;;;;;;;;;;;;5111196;28;1855;-68
2023/07/06 01:47:03;;;;;;;;;;;;;;;;;;5112971;27;2251;-63
2023/07/06 01:49:31;;;;;;;;;;;;;;;;;;5131900;27;2274;-66
2023/07/06 01:51:58;;;;;;;;;;;;;;;;;;5113068;27;2056;-68
2023/07/06 01:54:29;;;;;;;;;;;;;;;;;;5112860;27;2199;-68
2023/07/06 01:57:04;;;;;;;;;;;;;;;;;;5096638;27;1961;-66
2023/07/06 01:59:35;;;;;;;;;;;;;;;;;;5130872;27;2366;-68
2023/07/06 02:02:07;;;;;;;;;;;;;;;;;;5131733;27;1817;-68
2023/07/06 02:04:36;;;;;;;;;;;;;;;;;;5113155;27;2140;-68
2023/07/06 02:07:05;;;;;;;;;;;;;;;;;;5131145;27;2004;-68
2023/07/06 02:09:42;;;;;;;;;;;;;;;;;;5112898;27;1908;-67
2023/07/06 02:12:12;;;;;;;;;;;;;;;;;;5131350;27;2117;-65
2023/07/06 02:14:42;;;;;;;;;;;;;;;;;;5112577;27;1870;-62
2023/07/06 02:17:10;;;;;;;;;;;;;;;;;;5131463;27;2044;-64
2023/07/06 02:19:38;;;;;;;;;;;;;;;;;;5112942;27;1869;-67
2023/07/06 02:22:05;;;;;;;;;;;;;;;;;;5130767;27;1965;-65
2023/07/06 02:24:33;;;;;;;;;;;;;;;;;;5130970;27;1977;-66
2023/07/06 02:27:01;;;;;;;;;;;;;;;;;;5131128;27;1984;-67
2023/07/06 02:29:28;;;;;;;;;;;;;;;;;;5130662;27;1900;-65
2023/07/06 02:31:56;;;;;;;;;;;;;;;;;;5131152;27;1786;-65
2023/07/06 02:34:26;;;;;;;;;;;;;;;;;;5130864;27;2006;-63
2023/07/06 02:36:54;;;;;;;;;;;;;;;;;;5130435;27;1768;-68
2023/07/06 02:39:24;;;;;;;;;;;;;;;;;;5112234;27;1911;-67
2023/07/06 02:41:56;;;;;;;;;;;;;;;;;;5130823;27;2011;-67
2023/07/06 02:44:24;;;;;;;;;;;;;;;;;;5112075;27;2089;-66
2023/07/06 02:46:51;;;;;;;;;;;;;;;;;;5111792;27;2182;-65
2023/07/06 02:49:18;;;;;;;;;;;;;;;;;;5130687;27;1845;-63
2023/07/06 02:51:46;;;;;;;;;;;;;;;;;;5129919;27;1741;-64
2023/07/06 02:54:15;;;;;;;;;;;;;;;;;;5112378;27;2181;-67
2023/07/06 02:56:42;;;;;;;;;;;;;;;;;;5110023;28;2063;-67
2023/07/06 02:59:10;;;;;;;;;;;;;;;;;;5109397;27;1960;-63
2023/07/06 03:01:38;;;;;;;;;;;;;;;;;;5111924;27;1820;-67
2023/07/06 03:04:09;;;;;;;;;;;;;;;;;;5112193;27;1939;-67
2023/07/06 03:06:38;;;;;;;;;;;;;;;;;;5129659;27;2048;-66
2023/07/06 03:09:07;;;;;;;;;;;;;;;;;;5130507;27;2000;-66
2023/07/06 03:11:34;;;;;;;;;;;;;;;;;;5111554;27;1900;-66
2023/07/06 03:14:04;;;;;;;;;;;;;;;;;;5111327;27;1837;-63
2023/07/06 03:16:40;;;;;;;;;;;;;;;;;;5129664;27;2091;-65
2023/07/06 03:19:08;;;;;;;;;;;;;;;;;;5112076;27;2073;-64
2023/07/06 03:21:39;;;;;;;;;;;;;;;;;;5129613;27;2163;-66
2023/07/06 03:24:07;;;;;;;;;;;;;;;;;;5130321;27;2072;-67
2023/07/06 03:26:36;;;;;;;;;;;;;;;;;;5104067;27;2102;-66
2023/07/06 03:29:04;;;;;;;;;;;;;;;;;;5110861;27;2229;-65
2023/07/06 03:31:32;;;;;;;;;;;;;;;;;;5129874;27;2028;-67
2023/07/06 03:34:00;;;;;;;;;;;;;;;;;;5111377;27;2070;-65
2023/07/06 03:36:28;;;;;;;;;;;;;;;;;;5110744;27;2078;-64
2023/07/06 03:38:57;;;;;;;;;;;;;;;;;;5129833;27;1958;-66
2023/07/06 03:41:24;;;;;;;;;;;;;;;;;;5109275;28;2140;-67
2023/07/06 03:43:56;;;;;;;;;;;;;;;;;;5108394;28;1973;-64
2023/07/06 03:46:31;;;;;;;;;;;;;;;;;;5109238;28;1934;-67
2023/07/06 03:48:59;;;;;;;;;;;;;;;;;;5109216;28;1935;-66
2023/07/06 03:51:27;;;;;;;;;;;;;;;;;;5108966;28;1800;-66
2023/07/06 03:53:55;;;;;;;;;;;;;;;;;;5109056;28;2121;-66
2023/07/06 03:56:27;;;;;;;;;;;;;;;;;;5109323;28;2577;-67
2023/07/06 03:58:56;;;;;;;;;;;;;;;;;;5108645;28;2220;-65
2023/07/06 04:01:24;;;;;;;;;;;;;;;;;;5109037;28;2094;-65
2023/07/06 04:03:52;;;;;;;;;;;;;;;;;;5108843;28;1991;-64
2023/07/06 04:06:20;;;;;;;;;;;;;;;;;;5108326;28;2019;-65
2023/07/06 04:08:47;;;;;;;;;;;;;;;;;;5108803;28;1961;-66
2023/07/06 04:11:16;;;;;;;;;;;;;;;;;;5108804;28;1816;-61
2023/07/06 04:13:44;;;;;;;;;;;;;;;;;;5108373;28;2319;-60
2023/07/06 04:16:18;;;;;;;;;;;;;;;;;;5108915;28;1890;-61
2023/07/06 04:18:47;;;;;;;;;;;;;;;;;;5108877;28;2159;-63
2023/07/06 04:21:15;;;;;;;;;;;;;;;;;;5108623;28;2140;-60
2023/07/06 04:23:42;;;;;;;;;;;;;;;;;;5108700;28;1831;-60
2023/07/06 04:26:11;;;;;;;;;;;;;;;;;;5108884;28;2069;-65
2023/07/06 04:28:40;;;;;;;;;;;;;;;;;;5108492;28;1737;-61
2023/07/06 04:31:08;;;;;;;;;;;;;;;;;;5111398;28;2237;-60
2023/07/06 04:33:35;;;;;;;;;;;;;;;;;;5128937;28;1997;-59
2023/07/06 04:36:03;;;;;;;;;;;;;;;;;;5128726;28;1937;-61
2023/07/06 04:38:30;;;;;;;;;;;;;;;;;;5108537;28;2076;-66
2023/07/06 04:40:58;;;;;;;;;;;;;;;;;;5108678;28;1913;-60
2023/07/06 04:43:26;;;;;;;;;;;;;;;;;;5108196;28;1850;-59
2023/07/06 04:45:55;;;;;;;;;;;;;;;;;;5108545;28;1906;-60
2023/07/06 04:48:24;;;;;;;;;;;;;;;;;;5108633;28;2026;-65
2023/07/06 04:50:55;;;;;;;;;;;;;;;;;;5108166;28;1798;-65
2023/07/06 04:53:23;;;;;;;;;;;;;;;;;;5108794;28;1907;-66
2023/07/06 04:55:51;;;;;;;;;;;;;;;;;;5108534;28;2171;-66
2023/07/06 04:58:18;;;;;;;;;;;;;;;;;;5112011;28;1780;-66
2023/07/06 05:00:45;;;;;;;;;;;;;;;;;;5112166;27;2031;-64
2023/07/06 05:03:13;;;;;;;;;;;;;;;;;;5112477;28;2037;-60
2023/07/06 05:05:45;;;;;;;;;;;;;;;;;;5111672;27;2137;-65
2023/07/06 05:08:16;;;;;;;;;;;;;;;;;;5112409;28;2083;-61
2023/07/06 05:10:46;;;;;;;;;;;;;;;;;;5112272;28;2016;-66
2023/07/06 05:13:14;;;;;;;;;;;;;;;;;;5111699;28;2114;-66
2023/07/06 05:15:42;;;;;;;;;;;;;;;;;;5112011;28;1911;-63
2023/07/06 05:18:09;;;;;;;;;;;;;;;;;;5112280;28;1905;-63
2023/07/06 05:20:37;;;;;;;;;;;;;;;;;;5111368;28;1959;-66
2023/07/06 05:23:07;;;;;;;;;;;;;;;;;;5112358;28;1831;-66
2023/07/06 05:25:36;;;;;;;;;;;;;;;;;;5111420;28;1632;-63
2023/07/06 05:28:03;;;;;;;;;;;;;;;;;;5111553;28;1989;-69
2023/07/06 05:30:31;;;;;;;;;;;;;;;;;;5111725;28;2118;-63
2023/07/06 05:32:58;;;;;;;;;;;;;;;;;;5111667;27;2011;-63
2023/07/06 05:35:27;;;;;;;;;;;;;;;;;;5111644;27;2104;-63
2023/07/06 05:37:55;;;;;;;;;;;;;;;;;;5124609;27;1869;-64
2023/07/06 05:40:23;;;;;;;;;;;;;;;;;;5132399;27;1859;-67
2023/07/06 05:42:50;;;;;;;;;;;;;;;;;;5131346;27;1932;-69
2023/07/06 05:45:17;;;;;;;;;;;;;;;;;;5127470;27;2097;-69
2023/07/06 05:47:47;;;;;;;;;;;;;;;;;;5125001;27;2069;-68
2023/07/06 05:50:15;;;;;;;;;;;;;;;;;;5131385;27;2094;-67
2023/07/06 05:52:46;;;;;;;;;;;;;;;;;;5125807;27;2037;-65
2023/07/06 05:55:13;;;;;;;;;;;;;;;;;;5111666;28;1919;-68
2023/07/06 05:57:41;;;;;;;;;;;;;;;;;;5110970;28;1907;-70
2023/07/06 06:00:13;;;;;;;;;;;;;;;;;;5111281;28;1905;-67
2023/07/06 06:02:44;;;;;;;;;;;;;;;;;;5111038;28;1904;-62
2023/07/06 06:05:14;;;;;;;;;;;;;;;;;;5110656;28;1703;-70
2023/07/06 06:07:45;;;;;;;;;;;;;;;;;;5110538;27;2020;-67
2023/07/06 06:10:13;;;;;;;;;;;;;;;;;;5111364;28;2124;-62
2023/07/06 06:12:40;;;;;;;;;;;;;;;;;;5110679;28;2068;-62
2023/07/06 06:15:08;;;;;;;;;;;;;;;;;;5110819;28;2004;-68
2023/07/06 06:17:37;;;;;;;;;;;;;;;;;;5110521;27;2045;-64
2023/07/06 06:20:06;;;;;;;;;;;;;;;;;;5126141;27;2143;-67
2023/07/06 06:22:33;;;;;;;;;;;;;;;;;;5113033;27;2566;-65
2023/07/06 06:25:02;;;;;;;;;;;;;;;;;;5131304;27;1825;-63
2023/07/06 06:27:30;;;;;;;;;;;;;;;;;;5130385;27;2023;-64
2023/07/06 06:29:58;;;;;;;;;;;;;;;;;;5131303;27;2165;-61
2023/07/06 06:32:25;;;;;;;;;;;;;;;;;;5130953;27;1892;-63
2023/07/06 06:34:52;;;;;;;;;;;;;;;;;;5110138;28;1985;-67
2023/07/06 06:37:20;;;;;;;;;;;;;;;;;;5110587;27;1844;-68
2023/07/06 06:39:47;;;;;;;;;;;;;;;;;;5110288;28;2067;-67
2023/07/06 06:42:18;;;;;;;;;;;;;;;;;;5110250;28;1797;-68
2023/07/06 06:44:46;;;;;;;;;;;;;;;;;;5110309;28;2018;-63
2023/07/06 06:47:13;;;;;;;;;;;;;;;;;;5110487;28;1970;-63
2023/07/06 06:49:40;;;;;;;;;;;;;;;;;;5109697;27;1982;-66
2023/07/06 06:52:08;;;;;;;;;;;;;;;;;;5110210;27;1963;-63
2023/07/06 06:54:35;;;;;;;;;;;;;;;;;;5109932;28;2202;-67
2023/07/06 06:57:04;;;;;;;;;;;;;;;;;;5109650;28;1741;-63
2023/07/06 06:59:32;;;;;;;;;;;;;;;;;;5109635;28;1991;-63
2023/07/06 07:02:01;;;;;;;;;;;;;;;;;;5110113;28;1894;-64
2023/07/06 07:04:31;;;;;;;;;;;;;;;;;;5112013;27;2188;-65
2023/07/06 07:07:03;;;;;;;;;;;;;;;;;;5130233;27;2186;-63
2023/07/06 07:09:31;;;;;;;;;;;;;;;;;;5130241;27;2039;-64
2023/07/06 07:11:59;;;;;;;;;;;;;;;;;;5129721;27;1812;-63
2023/07/06 07:14:28;;;;;;;;;;;;;;;;;;5130195;27;1909;-64
2023/07/06 07:16:55;;;;;;;;;;;;;;;;;;5130269;27;1933;-63
2023/07/06 07:19:23;;;;;;;;;;;;;;;;;;5128921;27;2206;-68
2023/07/06 07:21:50;;;;;;;;;;;;;;;;;;5130237;27;2107;-72
2023/07/06 07:24:18;;;;;;;;;;;;;;;;;;5130135;27;2095;-64
2023/07/06 07:26:48;;;;;;;;;;;;;;;;;;5129613;27;1918;-63
2023/07/06 07:29:16;;;;;;;;;;;;;;;;;;5130480;27;1746;-64
2023/07/06 07:31:43;;;;;;;;;;;;;;;;;;5129807;27;2079;-66
2023/07/06 07:34:14;;;;;;;;;;;;;;;;;;5129821;27;2160;-62
2023/07/06 07:36:41;;;;;;;;;;;;;;;;;;5129606;27;1847;-63
2023/07/06 07:39:10;;;;;;;;;;;;;;;;;;5130065;27;2092;-65
2023/07/06 07:41:37;;;;;;;;;;;;;;;;;;5129380;27;1912;-61
2023/07/06 07:44:06;;;;;;;;;;;;;;;;;;5129907;27;2324;-63
2023/07/06 07:46:34;;;;;;;;;;;;;;;;;;5129695;27;2092;-70
2023/07/06 07:49:01;;;;;;;;;;;;;;;;;;5129201;27;1946;-62
2023/07/06 07:51:30;;;;;;;;;;;;;;;;;;5129519;27;2264;-69
2023/07/06 07:53:57;;;;;;;;;;;;;;;;;;5129725;27;1796;-71
2023/07/06 07:56:26;;;;;;;;;;;;;;;;;;5129252;27;1976;-64
2023/07/06 07:58:53;;;;;;;;;;;;;;;;;;5129760;27;1957;-67
2023/07/06 08:01:24;;;;;;;;;;;;;;;;;;5109258;28;1994;-67
2023/07/06 08:03:57;;;;;;;;;;;;;;;;;;5108201;28;2306;-64
2023/07/06 08:06:24;;;;;;;;;;;;;;;;;;5109268;28;1866;-64
2023/07/06 08:08:52;;;;;;;;;;;;;;;;;;5108803;28;1980;-71
2023/07/06 08:11:21;;;;;;;;;;;;;;;;;;5108711;28;2049;-70
2023/07/06 08:13:53;;;;;;;;;;;;;;;;;;5108730;28;1783;-67
2023/07/06 08:16:22;;;;;;;;;;;;;;;;;;5129223;28;2007;-66
2023/07/06 08:18:50;;;;;;;;;;;;;;;;;;5128872;28;1639;-69
2023/07/06 08:21:26;;;;;;;;;;;;;;;;;;5129546;28;2041;-68
2023/07/06 08:24:14;;;;;;;;;;;;;;;;;;5108594;28;2017;-72
2023/07/06 08:26:42;;;;;;;;;;;;;;;;;;5108551;28;2046;-65
2023/07/06 08:29:09;;;;;;;;;;;;;;;;;;5108860;28;2120;-65
2023/07/06 08:31:36;;;;;;;;;;;;;;;;;;5110739;28;1886;-62
2023/07/06 08:34:04;;;;;;;;;;;;;;;;;;5113194;28;1812;-71
2023/07/06 08:36:33;;;;;;;;;;;;;;;;;;5133191;27;2160;-62
2023/07/06 08:39:02;;;;;;;;;;;;;;;;;;5132878;27;2015;-63
2023/07/06 08:41:35;;;;;;;;;;;;;;;;;;5133189;27;1929;-62
2023/07/06 08:44:03;;;;;;;;;;;;;;;;;;5133187;27;1936;-62
2023/07/06 08:46:32;;;;;;;;;;;;;;;;;;5132578;27;2280;-66
2023/07/06 08:49:00;;;;;;;;;;;;;;;;;;5133100;27;2043;-63
2023/07/06 08:51:30;;;;;;;;;;;;;;;;;;5133201;27;2045;-72
2023/07/06 08:54:02;;;;;;;;;;;;;;;;;;5116393;27;1901;-61
2023/07/06 08:56:33;;;;;;;;;;;;;;;;;;5108149;28;2216;-64
2023/07/06 08:59:03;;;;;;;;;;;;;;;;;;5112798;28;1972;-61
2023/07/06 09:01:32;;;;;;;;;;;;;;;;;;5111857;28;2043;-66
2023/07/06 09:04:01;;;;;;;;;;;;;;;;;;5112493;28;2041;-70
2023/07/06 09:06:28;;;;;;;;;;;;;;;;;;5112303;28;1774;-61
2023/07/06 09:09:03;;;;;;;;;;;;;;;;;;5111301;28;2106;-66
2023/07/06 09:11:31;;;;;;;;;;;;;;;;;;5132972;27;2218;-62
2023/07/06 09:14:02;;;;;;;;;;;;;;;;;;5132471;27;1817;-66
2023/07/06 09:16:33;;;;;;;;;;;;;;;;;;5132213;27;2266;-67
2023/07/06 09:19:06;;;;;;;;;;;;;;;;;;5132434;27;2281;-61
2023/07/06 09:21:35;;;;;;;;;;;;;;;;;;5132422;27;1890;-66
2023/07/06 09:24:02;;;;;;;;;;;;;;;;;;5132220;27;2048;-66
2023/07/06 09:26:34;;;;;;;;;;;;;;;;;;5130946;27;2243;-61
2023/07/06 09:29:12;;;;;;;;;;;;;;;;;;5132449;27;1943;-66
2023/07/06 09:31:40;;;;;;;;;;;;;;;;;;5131434;27;2266;-62
2023/07/06 09:34:21;;;;;;;;;;;;;;;;;;5132364;27;2171;-62
2023/07/06 09:36:49;;;;;;;;;;;;;;;;;;5131975;27;1803;-61
2023/07/06 09:39:16;;;;;;;;;;;;;;;;;;5132118;27;1896;-62
2023/07/06 09:41:44;;;;;;;;;;;;;;;;;;5131760;27;2078;-62
2023/07/06 09:44:24;;;;;;;;;;;;;;;;;;5131431;27;2179;-62
2023/07/06 09:46:51;;;;;;;;;;;;;;;;;;5131702;27;2003;-61
2023/07/06 09:49:19;;;;;;;;;;;;;;;;;;5131818;27;2219;-56
2023/07/06 09:51:50;;;;;;;;;;;;;;;;;;5131852;27;1877;-64
2023/07/06 09:54:20;;;;;;;;;;;;;;;;;;5112648;27;1971;-62
2023/07/06 09:56:48;;;;;;;;;;;;;;;;;;5111749;28;2115;-62
2023/07/06 09:59:16;;;;;;;;;;;;;;;;;;5116334;27;2207;-61
2023/07/06 10:01:51;;;;;;;;;;;;;;;;;;5123612;27;1926;-61
2023/07/06 10:04:37;;;;;;;;;;;;;;;;;;5111357;28;1843;-61
2023/07/06 10:07:23;;;;;;;;;;;;;;;;;;5110902;27;1732;-61
2023/07/06 10:10:20;;;;;;;;;;;;;;;;;;5110158;28;1998;-62
2023/07/06 10:12:53;;;;;;;;;;;;;;;;;;5111359;27;2028;-60
2023/07/06 10:15:41;;;;;;;;;;;;;;;;;;5131054;27;2192;-62
2023/07/06 10:18:21;;;;;;;;;;;;;;;;;;5131175;27;2014;-61
2023/07/06 10:20:52;;;;;;;;;;;;;;;;;;5131190;27;1935;-62
2023/07/06 10:23:19;;;;;;;;;;;;;;;;;;5131480;27;1860;-61
2023/07/06 10:25:55;;;;;;;;;;;;;;;;;;5130503;27;2005;-62
2023/07/06 10:28:28;;;;;;;;;;;;;;;;;;5131318;27;2285;-62
2023/07/06 10:30:57;;;;;;;;;;;;;;;;;;5130887;27;1883;-60
2023/07/06 10:33:30;;;;;;;;;;;;;;;;;;5130864;27;2332;-62
2023/07/06 10:35:58;;;;;;;;;;;;;;;;;;5131103;27;1972;-63
2023/07/06 10:38:27;;;;;;;;;;;;;;;;;;5131064;27;1888;-64
2023/07/06 10:41:09;;;;;;;;;;;;;;;;;;5130589;27;2074;-63
2023/07/06 10:43:40;;;;;;;;;;;;;;;;;;5111979;27;2084;-60
2023/07/06 10:46:26;;;;;;;;;;;;;;;;;;5110611;28;2067;-62
2023/07/06 10:49:00;;;;;;;;;;;;;;;;;;5109865;28;1946;-61
2023/07/06 10:51:28;;;;;;;;;;;;;;;;;;5110430;28;2006;-61
2023/07/06 10:54:18;;;;;;;;;;;;;;;;;;5109976;28;2040;-62
2023/07/06 10:57:10;;;;;;;;;;;;;;;;;;5110170;28;1901;-61
2023/07/06 10:59:49;;;;;;;;;;;;;;;;;;5098376;28;2083;-62
2023/07/06 11:02:20;;;;;;;;;;;;;;;;;;5109862;28;2042;-58
2023/07/06 11:04:54;;;;;;;;;;;;;;;;;;5110223;28;1953;-62
2023/07/06 11:07:38;;;;;;;;;;;;;;;;;;5109892;28;2019;-62
2023/07/06 11:10:16;;;;;;;;;;;;;;;;;;5129985;27;2277;-61
2023/07/06 11:13:04;;;;;;;;;;;;;;;;;;5110059;28;1945;-61
2023/07/06 11:15:31;;;;;;;;;;;;;;;;;;5109618;28;1918;-59
2023/07/06 11:18:03;;;;;;;;;;;;;;;;;;5109451;28;1967;-61
2023/07/06 11:20:31;;;;;;;;;;;;;;;;;;5109570;27;2003;-62
2023/07/06 11:23:01;;;;;;;;;;;;;;;;;;5112181;27;2105;-62
2023/07/06 11:25:29;;;;;;;;;;;;;;;;;;5129935;27;2133;-62
2023/07/06 11:28:03;;;;;;;;;;;;;;;;;;5129944;27;2204;-61
2023/07/06 11:30:34;;;;;;;;;;;;;;;;;;5130013;27;2107;-61
2023/07/06 11:33:06;;;;;;;;;;;;;;;;;;5129620;27;1965;-62
2023/07/06 11:35:42;;;;;;;;;;;;;;;;;;5129886;27;1909;-62
2023/07/06 11:38:19;;;;;;;;;;;;;;;;;;5129307;27;2238;-61
2023/07/06 11:41:00;;;;;;;;;;;;;;;;;;5129112;27;1872;-62
2023/07/06 11:43:35;;;;;;;;;;;;;;;;;;5130092;27;1895;-62
2023/07/06 11:46:25;;;;;;;;;;;;;;;;;;5129839;27;2117;-60
2023/07/06 11:48:53;;;;;;;;;;;;;;;;;;5091600;27;2104;-61
2023/07/06 11:51:21;;;;;;;;;;;;;;;;;;5129381;27;2436;-60
2023/07/06 11:53:56;;;;;;;;;;;;;;;;;;5114032;27;2170;-62
2023/07/06 11:56:50;;;;;;;;;;;;;;;;;;5109371;28;2038;-61
2023/07/06 11:59:40;;;;;;;;;;;;;;;;;;5109391;28;1755;-62
2023/07/06 12:02:14;;;;;;;;;;;;;;;;;;5129148;27;2060;-61
2023/07/06 12:04:45;;;;;;;;;;;;;;;;;;5129279;27;2069;-61
2023/07/06 12:07:20;;;;;;;;;;;;;;;;;;5129294;27;2059;-59
2023/07/06 12:09:48;;;;;;;;;;;;;;;;;;5128611;27;1979;-59
2023/07/06 12:12:17;;;;;;;;;;;;;;;;;;5129518;27;2156;-62
2023/07/06 12:14:45;;;;;;;;;;;;;;;;;;5129315;28;1824;-62
2023/07/06 12:17:13;;;;;;;;;;;;;;;;;;5129159;28;1858;-61
2023/07/06 12:19:41;;;;;;;;;;;;;;;;;;5129010;28;2099;-61
2023/07/06 12:22:16;;;;;;;;;;;;;;;;;;5129712;28;1954;-60
2023/07/06 12:24:45;;;;;;;;;;;;;;;;;;5128772;28;1931;-61
2023/07/06 12:27:14;;;;;;;;;;;;;;;;;;5129346;28;1923;-62
2023/07/06 12:29:45;;;;;;;;;;;;;;;;;;5128973;28;2280;-62
2023/07/06 12:32:13;;;;;;;;;;;;;;;;;;5108479;28;2014;-60
2023/07/06 12:34:41;;;;;;;;;;;;;;;;;;5108671;28;2076;-61
2023/07/06 12:37:09;;;;;;;;;;;;;;;;;;5108535;28;2002;-60
2023/07/06 12:39:38;;;;;;;;;;;;;;;;;;5108287;28;1820;-63
2023/07/06 12:42:08;;;;;;;;;;;;;;;;;;5108689;28;1947;-60
2023/07/06 12:44:37;;;;;;;;;;;;;;;;;;5108036;28;1862;-61
2023/07/06 12:47:27;;;;;;;;;;;;;;;;;;5108361;28;2082;-62
2023/07/06 12:49:58;;;;;;;;;;;;;;;;;;5108700;28;2125;-62
2023/07/06 12:52:25;;;;;;;;;;;;;;;;;;5108417;28;1813;-61
2023/07/06 12:54:56;;;;;;;;;;;;;;;;;;5107856;28;1870;-65
2023/07/06 12:57:31;;;;;;;;;;;;;;;;;;5108387;28;1897;-62
2023/07/06 13:00:09;;;;;;;;;;;;;;;;;;5108364;28;2099;-63
2023/07/06 13:02:37;;;;;;;;;;;;;;;;;;5108057;28;1790;-63
2023/07/06 13:05:16;;;;;;;;;;;;;;;;;;5108549;28;1988;-62
2023/07/06 13:07:50;;;;;;;;;;;;;;;;;;5107948;28;1893;-60
2023/07/06 13:10:31;;;;;;;;;;;;;;;;;;5108413;28;1913;-63
2023/07/06 13:13:00;;;;;;;;;;;;;;;;;;5108330;28;2072;-61
2023/07/06 13:15:39;;;;;;;;;;;;;;;;;;5108147;28;2058;-62
2023/07/06 13:18:14;;;;;;;;;;;;;;;;;;5109991;27;1904;-62
2023/07/06 13:20:43;;;;;;;;;;;;;;;;;;5114073;27;2291;-61
2023/07/06 13:23:11;;;;;;;;;;;;;;;;;;5132814;27;1988;-61
2023/07/06 13:25:44;;;;;;;;;;;;;;;;;;5132610;27;2303;-63
2023/07/06 13:28:12;;;;;;;;;;;;;;;;;;5132581;27;2841;-64
2023/07/06 13:30:50;;;;;;;;;;;;;;;;;;5132650;27;2603;-65
2023/07/06 13:33:19;;;;;;;;;;;;;;;;;;5133007;27;2040;-65
2023/07/06 13:35:46;;;;;;;;;;;;;;;;;;5132893;27;2570;-66
2023/07/06 13:38:14;;;;;;;;;;;;;;;;;;5127690;27;2265;-60
2023/07/06 13:40:42;;;;;;;;;;;;;;;;;;5133653;27;2276;-64
2023/07/06 13:43:14;;;;;;;;;;;;;;;;;;5133919;27;2239;-65
2023/07/06 13:45:43;;;;;;;;;;;;;;;;;;5133445;27;2265;-63
2023/07/06 13:48:14;;;;;;;;;;;;;;;;;;5134072;27;1984;-62
2023/07/06 13:50:42;;;;;;;;;;;;;;;;;;5133929;27;2109;-65
2023/07/06 13:53:10;;;;;;;;;;;;;;;;;;5118644;27;2459;-65
2023/07/06 13:55:57;;;;;;;;;;;;;;;;;;5113085;28;2354;-66
2023/07/06 13:58:28;;;;;;;;;;;;;;;;;;5112998;28;2524;-66
2023/07/06 14:00:56;;;;;;;;;;;;;;;;;;5112698;28;2149;-65
2023/07/06 14:03:24;;;;;;;;;;;;;;;;;;5113136;28;2018;-65
2023/07/06 14:05:52;;;;;;;;;;;;;;;;;;5112850;28;1979;-64
2023/07/06 14:08:21;;;;;;;;;;;;;;;;;;5112314;27;2449;-65
2023/07/06 14:10:49;;;;;;;;;;;;;;;;;;5112963;28;2044;-65
2023/07/06 14:13:16;;;;;;;;;;;;;;;;;;5113035;28;2383;-65
2023/07/06 14:15:44;;;;;;;;;;;;;;;;;;5112587;28;1697;-66
2023/07/06 14:18:12;;;;;;;;;;;;;;;;;;5112844;28;2060;-62
2023/07/06 14:20:46;;;;;;;;;;;;;;;;;;5112732;27;2292;-65
2023/07/06 14:23:15;;;;;;;;;;;;;;;;;;5111944;28;2091;-64
2023/07/06 14:25:43;;;;;;;;;;;;;;;;;;5112621;28;2056;-66
2023/07/06 14:28:15;;;;;;;;;;;;;;;;;;5112028;28;2179;-66
2023/07/06 14:30:44;;;;;;;;;;;;;;;;;;5112170;28;2216;-66
2023/07/06 14:33:14;;;;;;;;;;;;;;;;;;5112758;28;2131;-66
2023/07/06 14:35:41;;;;;;;;;;;;;;;;;;5114126;27;2247;-64
2023/07/06 14:38:09;;;;;;;;;;;;;;;;;;5132401;27;1970;-66
2023/07/06 14:40:37;;;;;;;;;;;;;;;;;;5132967;27;2153;-66
2023/07/06 14:43:06;;;;;;;;;;;;;;;;;;5132828;27;2106;-65
2023/07/06 14:45:34;;;;;;;;;;;;;;;;;;5132159;27;2592;-65
2023/07/06 14:48:01;;;;;;;;;;;;;;;;;;5132568;27;2078;-66
2023/07/06 14:50:29;;;;;;;;;;;;;;;;;;5132487;27;2380;-63
2023/07/06 14:52:56;;;;;;;;;;;;;;;;;;5124805;27;2238;-65
2023/07/06 14:55:24;;;;;;;;;;;;;;;;;;5112136;28;2073;-66
2023/07/06 14:57:51;;;;;;;;;;;;;;;;;;5112070;28;2318;-66
2023/07/06 15:00:19;;;;;;;;;;;;;;;;;;5111610;28;1953;-67
2023/07/06 15:02:46;;;;;;;;;;;;;;;;;;5111148;28;2140;-65
2023/07/06 15:05:14;;;;;;;;;;;;;;;;;;5111587;27;2375;-66
2023/07/06 15:07:41;;;;;;;;;;;;;;;;;;5115796;27;2676;-68
2023/07/06 15:10:09;;;;;;;;;;;;;;;;;;5131248;27;2204;-65
2023/07/06 15:12:40;;;;;;;;;;;;;;;;;;5131318;27;2094;-64
2023/07/06 15:15:09;;;;;;;;;;;;;;;;;;5130452;27;2037;-65
2023/07/06 15:17:36;;;;;;;;;;;;;;;;;;5131148;27;2005;-66
2023/07/06 15:20:06;;;;;;;;;;;;;;;;;;5130464;27;2312;-66
2023/07/06 15:22:33;;;;;;;;;;;;;;;;;;5130533;27;2439;-65
2023/07/06 15:25:02;;;;;;;;;;;;;;;;;;5131009;27;2263;-64
2023/07/06 15:27:30;;;;;;;;;;;;;;;;;;5131488;27;2170;-64
2023/07/06 15:29:57;;;;;;;;;;;;;;;;;;5131044;27;2202;-64
2023/07/06 15:32:25;;;;;;;;;;;;;;;;;;5131579;27;1991;-62
2023/07/06 15:34:52;;;;;;;;;;;;;;;;;;5131511;27;2587;-65
2023/07/06 15:37:28;;;;;;;;;;;;;;;;;;5131155;27;2052;-66
2023/07/06 15:39:59;;;;;;;;;;;;;;;;;;5130810;27;2270;-65
2023/07/06 15:42:27;;;;;;;;;;;;;;;;;;5131002;27;2308;-65
2023/07/06 15:44:54;;;;;;;;;;;;;;;;;;5130776;27;2096;-61
2023/07/06 15:47:22;;;;;;;;;;;;;;;;;;5131621;27;2156;-64
2023/07/06 15:49:49;;;;;;;;;;;;;;;;;;5110901;28;2005;-64
2023/07/06 15:52:17;;;;;;;;;;;;;;;;;;5110560;28;1863;-62
2023/07/06 15:54:44;;;;;;;;;;;;;;;;;;5117273;27;2253;-62
2023/07/06 15:57:12;;;;;;;;;;;;;;;;;;5130711;27;2221;-64
2023/07/06 15:59:41;;;;;;;;;;;;;;;;;;5116663;27;2362;-63
2023/07/06 16:02:11;;;;;;;;;;;;;;;;;;5109420;28;2231;-65
2023/07/06 16:04:39;;;;;;;;;;;;;;;;;;5110134;28;2351;-64
2023/07/06 16:07:06;;;;;;;;;;;;;;;;;;5108880;28;2800;-63
2023/07/06 16:09:34;;;;;;;;;;;;;;;;;;5109308;28;1969;-66
2023/07/06 16:12:01;;;;;;;;;;;;;;;;;;5109866;28;1949;-64
2023/07/06 16:14:28;;;;;;;;;;;;;;;;;;5110132;28;2166;-65
2023/07/06 16:16:56;;;;;;;;;;;;;;;;;;5130469;28;1907;-64
2023/07/06 16:19:24;;;;;;;;;;;;;;;;;;5129837;28;2025;-65
2023/07/06 16:21:52;;;;;;;;;;;;;;;;;;5129574;28;2161;-62
2023/07/06 16:24:19;;;;;;;;;;;;;;;;;;5129951;28;2213;-66
2023/07/06 16:26:46;;;;;;;;;;;;;;;;;;5129938;28;2536;-65
2023/07/06 16:29:16;;;;;;;;;;;;;;;;;;5129532;28;2091;-65
2023/07/06 16:31:43;;;;;;;;;;;;;;;;;;5129766;28;2371;-64
2023/07/06 16:34:11;;;;;;;;;;;;;;;;;;5129657;28;2068;-66
2023/07/06 16:36:38;;;;;;;;;;;;;;;;;;5129400;28;2129;-67
2023/07/06 16:39:06;;;;;;;;;;;;;;;;;;5129623;28;2450;-64
2023/07/06 16:41:33;;;;;;;;;;;;;;;;;;5129853;28;1982;-64
2023/07/06 16:44:01;;;;;;;;;;;;;;;;;;5129345;28;1990;-64
2023/07/06 16:46:28;;;;;;;;;;;;;;;;;;5109315;28;2345;-64
2023/07/06 16:48:58;;;;;;;;;;;;;;;;;;5108825;28;2033;-61
2023/07/06 16:51:25;;;;;;;;;;;;;;;;;;5108473;28;2166;-63
2023/07/06 16:53:53;;;;;;;;;;;;;;;;;;5111923;28;2080;-65
2023/07/06 16:56:21;;;;;;;;;;;;;;;;;;5111478;28;2010;-65
2023/07/06 16:58:48;;;;;;;;;;;;;;;;;;5111445;28;1833;-64
2023/07/06 17:01:15;;;;;;;;;;;;;;;;;;5111475;28;2030;-65
2023/07/06 17:03:42;;;;;;;;;;;;;;;;;;5111273;28;2274;-63
2023/07/06 17:06:10;;;;;;;;;;;;;;;;;;5115038;27;1823;-62
2023/07/06 17:08:37;;;;;;;;;;;;;;;;;;5133456;27;1942;-65
2023/07/06 17:11:06;;;;;;;;;;;;;;;;;;5133388;27;2189;-65
2023/07/06 17:13:34;;;;;;;;;;;;;;;;;;5132958;27;2035;-64
2023/07/06 17:16:02;;;;;;;;;;;;;;;;;;5132909;27;1951;-65
2023/07/06 17:18:29;;;;;;;;;;;;;;;;;;5133112;27;1656;-65
2023/07/06 17:20:57;;;;;;;;;;;;;;;;;;5129563;27;1836;-64
2023/07/06 17:23:25;;;;;;;;;;;;;;;;;;5112773;28;2143;-66
2023/07/06 17:25:52;;;;;;;;;;;;;;;;;;5112811;28;2106;-64